Time;durP1;ratioP1;P1;durP2;ratioP2;P2;SDS_P1;SDS_P2;PMS_P1;PMS_P2;Temp;Humidity;BMP_temperature;BMP_pressure;BME280_temperature;BME280_humidity;BME280_pressure;Samples;Min_cycle;Max_cycle;Signal;HPM_P1;HPM_P2
2022/04/14 00:00:23;;;;;;;8.20;7.03;;;17.20;99.90;;;;;;5051609;28;20170;-68
2022/04/14 00:02:53;;;;;;;7.97;6.93;;;17.20;99.90;;;;;;5051933;28;20807;-66
2022/04/14 00:05:19;;;;;;;7.13;6.57;;;17.10;99.90;;;;;;5051753;28;20417;-73
2022/04/14 00:07:44;;;;;;;6.77;6.27;;;17.10;99.90;;;;;;5051131;28;20431;-65
2022/04/14 00:10:11;;;;;;;6.67;6.10;;;17.10;99.90;;;;;;5051937;28;20214;-65
2022/04/14 00:12:37;;;;;;;6.70;6.10;;;17.10;99.90;;;;;;5051806;28;20630;-65
2022/04/14 00:15:04;;;;;;;7.63;7.03;;;17.10;99.90;;;;;;5052625;28;20447;-65
2022/04/14 00:17:32;;;;;;;7.23;6.50;;;17.10;99.90;;;;;;5051436;28;20424;-65
2022/04/14 00:19:59;;;;;;;7.13;6.53;;;17.10;99.90;;;;;;5052386;28;20937;-65
2022/04/14 00:22:25;;;;;;;7.20;6.60;;;17.10;99.90;;;;;;5051097;28;20539;-65
2022/04/14 00:24:51;;;;;;;7.90;7.20;;;17.00;99.90;;;;;;5051645;28;20507;-65
2022/04/14 00:27:20;;;;;;;7.40;6.70;;;17.00;99.90;;;;;;5052270;28;20209;-64
2022/04/14 00:29:49;;;;;;;7.63;7.07;;;17.00;99.90;;;;;;5050908;28;20178;-67
2022/04/14 00:32:14;;;;;;;7.27;6.77;;;17.00;99.90;;;;;;5051241;28;20428;-66
2022/04/14 00:34:40;;;;;;;7.60;7.00;;;17.00;99.90;;;;;;5051413;28;20489;-66
2022/04/14 00:37:07;;;;;;;7.40;6.90;;;16.90;99.90;;;;;;5051756;28;20576;-66
2022/04/14 00:39:32;;;;;;;7.43;6.83;;;16.90;99.90;;;;;;5050923;28;20212;-67
2022/04/14 00:47:26;;;;;;;6.63;6.03;;;16.80;99.90;;;;;;5273097;22;20480;-68
2022/04/14 00:49:52;;;;;;;6.63;6.13;;;16.80;99.90;;;;;;5012889;28;20417;-69
2022/04/14 00:52:22;;;;;;;6.53;6.00;;;16.80;99.90;;;;;;5012002;28;20427;-69
2022/04/14 00:54:48;;;;;;;6.37;5.87;;;16.80;99.90;;;;;;5011275;28;20979;-69
2022/04/14 00:57:14;;;;;;;8.10;7.37;;;16.70;99.90;;;;;;5011298;28;20428;-69
2022/04/14 00:59:41;;;;;;;7.93;6.77;;;16.70;99.90;;;;;;5012090;28;20973;-69
2022/04/14 01:02:08;;;;;;;7.17;6.53;;;16.60;99.90;;;;;;5011737;28;20473;-84
2022/04/14 01:04:35;;;;;;;6.87;6.27;;;16.60;99.90;;;;;;5010360;28;20499;-69
2022/04/14 01:07:01;;;;;;;6.50;6.00;;;16.60;99.90;;;;;;5012125;28;20424;-68
2022/04/14 01:09:29;;;;;;;6.70;6.10;;;16.50;99.90;;;;;;5011751;28;20417;-69
2022/04/14 01:11:55;;;;;;;8.37;6.20;;;16.50;99.90;;;;;;5010879;28;20433;-69
2022/04/14 01:14:38;;;;;;;6.87;6.37;;;16.50;99.90;;;;;;5011676;28;20418;-69
2022/04/14 01:17:09;;;;;;;7.13;6.33;;;16.50;99.90;;;;;;5012278;28;20413;-69
2022/04/14 01:19:36;;;;;;;8.80;6.53;;;16.50;99.90;;;;;;5011426;28;20428;-68
2022/04/14 01:22:12;;;;;;;6.60;6.00;;;16.50;99.90;;;;;;5012097;28;20495;-68
2022/04/14 01:24:40;;;;;;;6.57;6.07;;;16.50;99.90;;;;;;5012317;28;20474;-69
2022/04/14 01:27:05;;;;;;;6.87;6.27;;;16.50;99.90;;;;;;5010566;28;20434;-69
2022/04/14 01:29:31;;;;;;;7.10;6.50;;;16.50;99.90;;;;;;5010814;28;21264;-68
2022/04/14 01:31:59;;;;;;;6.60;6.10;;;16.40;99.90;;;;;;4994191;28;20944;-69
2022/04/14 01:34:25;;;;;;;6.83;6.23;;;16.40;99.90;;;;;;5011376;28;20509;-69
2022/04/14 01:36:51;;;;;;;7.73;6.90;;;16.40;99.90;;;;;;5030751;28;20925;-69
2022/04/14 01:39:17;;;;;;;7.30;6.80;;;16.40;99.90;;;;;;5014946;28;20898;-69
2022/04/14 01:41:44;;;;;;;7.83;7.10;;;16.40;99.90;;;;;;5015390;28;20464;-69
2022/04/14 01:44:10;;;;;;;7.40;6.80;;;16.40;99.90;;;;;;5015373;28;20492;-84
2022/04/14 01:46:37;;;;;;;7.10;6.60;;;16.30;99.90;;;;;;5014969;28;20458;-69
2022/04/14 01:49:03;;;;;;;7.93;7.20;;;16.40;99.90;;;;;;5014196;28;20453;-69
2022/04/14 01:51:30;;;;;;;8.20;7.40;;;16.40;99.90;;;;;;5014428;28;20428;-69
2022/04/14 01:53:56;;;;;;;8.80;8.10;;;16.30;99.90;;;;;;5015104;28;20869;-69
2022/04/14 01:56:22;;;;;;;9.63;8.80;;;16.30;99.90;;;;;;5014864;28;20453;-68
2022/04/14 01:58:48;;;;;;;9.00;7.57;;;16.30;99.90;;;;;;5015341;28;20581;-68
2022/04/14 02:01:14;;;;;;;8.23;7.60;;;16.30;99.90;;;;;;5013946;28;20514;-76
2022/04/14 02:03:40;;;;;;;8.70;7.80;;;16.30;99.90;;;;;;4997844;28;20433;-69
2022/04/14 02:06:06;;;;;;;7.83;7.13;;;16.30;99.90;;;;;;5015156;28;20967;-69
2022/04/14 02:08:32;;;;;;;8.60;7.80;;;16.30;99.90;;;;;;5014324;28;20339;-69
2022/04/14 02:10:58;;;;;;;7.57;6.87;;;16.30;99.90;;;;;;5015109;28;20422;-69
2022/04/14 02:13:23;;;;;;;6.77;6.27;;;16.30;99.90;;;;;;5014057;28;20468;-69
2022/04/14 02:15:49;;;;;;;6.63;6.13;;;16.30;99.90;;;;;;5014894;28;20574;-69
2022/04/14 02:18:15;;;;;;;6.57;6.07;;;16.20;99.90;;;;;;5014294;28;20630;-79
2022/04/14 02:20:41;;;;;;;7.10;6.50;;;16.20;99.90;;;;;;5013415;28;20184;-68
2022/04/14 02:23:06;;;;;;;7.00;6.30;;;16.20;99.90;;;;;;5013771;28;20567;-69
2022/04/14 02:25:32;;;;;;;6.40;5.90;;;16.20;99.90;;;;;;5014020;28;20728;-69
2022/04/14 02:27:58;;;;;;;5.33;5.03;;;16.20;99.90;;;;;;5013495;28;20213;-69
2022/04/14 02:30:24;;;;;;;6.40;5.77;;;16.10;99.90;;;;;;5013664;28;20262;-69
2022/04/14 02:32:49;;;;;;;5.83;5.43;;;16.10;99.90;;;;;;5014418;28;20189;-69
2022/04/14 02:35:15;;;;;;;5.90;5.50;;;16.10;99.90;;;;;;5013835;28;20259;-83
2022/04/14 02:37:41;;;;;;;6.30;5.90;;;16.10;99.90;;;;;;5014648;28;20174;-69
2022/04/14 02:40:07;;;;;;;7.33;6.73;;;16.10;99.90;;;;;;5014134;28;20575;-69
2022/04/14 02:42:33;;;;;;;6.50;6.10;;;16.10;99.90;;;;;;5012381;28;20680;-69
2022/04/14 02:44:59;;;;;;;7.13;6.63;;;16.10;99.90;;;;;;4996874;28;20429;-69
2022/04/14 02:47:24;;;;;;;7.17;6.67;;;16.10;99.90;;;;;;5011983;28;20182;-69
2022/04/14 02:49:50;;;;;;;7.47;6.97;;;16.10;99.90;;;;;;5014213;28;20168;-69
2022/04/14 02:52:16;;;;;;;7.70;7.10;;;16.10;99.90;;;;;;5013533;28;20896;-85
2022/04/14 02:54:42;;;;;;;8.57;7.90;;;16.10;99.90;;;;;;5014417;28;20228;-69
2022/04/14 02:57:09;;;;;;;8.27;7.43;;;16.10;99.90;;;;;;5013974;28;20635;-68
2022/04/14 02:59:36;;;;;;;8.83;8.13;;;16.10;99.90;;;;;;5013366;28;20191;-69
2022/04/14 03:02:03;;;;;;;9.70;8.80;;;16.10;99.90;;;;;;5012126;28;20531;-68
2022/04/14 03:04:30;;;;;;;9.37;8.57;;;16.20;99.90;;;;;;5013300;28;20897;-67
2022/04/14 03:06:56;;;;;;;8.20;7.40;;;16.20;99.90;;;;;;5012312;28;20834;-69
2022/04/14 03:09:22;;;;;;;8.90;8.10;;;16.10;99.90;;;;;;5012462;28;20425;-67
2022/04/14 03:11:48;;;;;;;9.10;8.40;;;16.10;99.90;;;;;;5013606;28;20980;-67
2022/04/14 03:14:14;;;;;;;8.27;7.57;;;16.00;99.90;;;;;;5013466;28;20634;-67
2022/04/14 03:16:39;;;;;;;9.40;8.50;;;16.00;99.90;;;;;;5006824;28;20211;-69
2022/04/14 03:19:05;;;;;;;9.20;8.40;;;16.00;99.90;;;;;;5012958;28;20635;-67
2022/04/14 03:21:32;;;;;;;10.77;9.80;;;16.00;99.90;;;;;;5012446;28;20221;-70
2022/04/14 03:23:57;;;;;;;10.47;9.53;;;16.00;99.90;;;;;;5012987;28;20421;-67
2022/04/14 03:26:23;;;;;;;8.87;8.07;;;16.00;99.90;;;;;;5012461;28;20209;-67
2022/04/14 03:28:48;;;;;;;9.30;8.60;;;16.00;99.90;;;;;;5011959;28;20170;-67
2022/04/14 03:31:14;;;;;;;9.93;8.90;;;16.00;99.90;;;;;;5013397;28;20235;-67
2022/04/14 03:33:40;;;;;;;11.50;9.77;;;16.00;99.90;;;;;;5012781;28;20618;-67
2022/04/14 03:36:06;;;;;;;12.30;11.23;;;16.00;99.90;;;;;;5013336;28;20177;-67
2022/04/14 03:38:32;;;;;;;11.67;10.67;;;16.00;99.90;;;;;;5012712;28;20178;-67
2022/04/14 03:40:59;;;;;;;12.40;11.20;;;16.00;99.90;;;;;;5012079;28;20217;-68
2022/04/14 03:43:25;;;;;;;13.07;11.77;;;16.00;99.90;;;;;;5012142;28;20512;-67
2022/04/14 03:45:51;;;;;;;12.10;10.93;;;16.00;99.90;;;;;;5013299;28;20423;-68
2022/04/14 03:48:17;;;;;;;16.83;15.33;;;16.00;99.90;;;;;;5011876;28;20530;-74
2022/04/14 03:50:43;;;;;;;13.17;11.80;;;16.00;99.90;;;;;;5012125;28;20967;-67
2022/04/14 03:53:09;;;;;;;14.40;12.97;;;16.00;99.90;;;;;;5013115;28;20420;-67
2022/04/14 03:55:35;;;;;;;13.07;11.77;;;16.00;99.90;;;;;;5011509;28;20182;-68
2022/04/14 03:58:00;;;;;;;14.43;13.13;;;16.00;99.90;;;;;;5012807;28;20182;-67
2022/04/14 04:00:26;;;;;;;13.77;12.37;;;16.00;99.90;;;;;;5011452;28;20850;-68
2022/04/14 04:02:52;;;;;;;13.37;11.97;;;16.00;99.90;;;;;;5013077;28;20203;-67
2022/04/14 04:05:17;;;;;;;13.10;10.73;;;16.00;99.90;;;;;;5012869;28;20630;-74
2022/04/14 04:07:43;;;;;;;13.37;10.97;;;15.90;99.90;;;;;;5012480;28;20205;-67
2022/04/14 04:10:09;;;;;;;13.13;11.77;;;15.90;99.90;;;;;;5012967;28;20228;-67
2022/04/14 04:12:34;;;;;;;14.00;12.20;;;16.00;99.90;;;;;;5011489;28;20190;-67
2022/04/14 04:15:00;;;;;;;14.77;12.70;;;15.90;99.90;;;;;;5012875;28;20185;-67
2022/04/14 04:17:26;;;;;;;14.40;12.93;;;15.90;99.90;;;;;;5011306;28;20185;-67
2022/04/14 04:19:52;;;;;;;14.33;12.87;;;15.90;99.90;;;;;;5012809;28;20182;-68
2022/04/14 04:22:17;;;;;;;14.93;13.27;;;15.80;99.90;;;;;;5011003;28;20227;-67
2022/04/14 04:24:43;;;;;;;15.17;13.57;;;15.80;99.90;;;;;;5011937;28;20185;-67
2022/04/14 04:27:09;;;;;;;14.40;12.10;;;15.80;99.90;;;;;;5011260;28;20205;-67
2022/04/14 04:29:34;;;;;;;13.87;12.47;;;15.80;99.90;;;;;;5011558;28;20708;-69
2022/04/14 04:32:00;;;;;;;13.50;11.97;;;15.80;99.90;;;;;;5012724;28;20213;-67
2022/04/14 04:34:26;;;;;;;16.40;12.47;;;15.80;99.90;;;;;;5011904;28;20214;-67
2022/04/14 04:36:52;;;;;;;14.90;13.40;;;15.70;99.90;;;;;;5012594;28;20192;-67
2022/04/14 04:39:18;;;;;;;14.93;13.37;;;15.70;99.90;;;;;;5012177;28;20762;-67
2022/04/14 04:41:44;;;;;;;14.53;11.60;;;15.80;99.90;;;;;;5010228;28;20212;-67
2022/04/14 04:44:09;;;;;;;15.57;13.93;;;15.80;99.90;;;;;;5012307;28;20177;-67
2022/04/14 04:46:35;;;;;;;15.17;13.63;;;15.80;99.90;;;;;;5009726;28;20216;-67
2022/04/14 04:49:01;;;;;;;14.67;13.17;;;15.80;99.90;;;;;;5010796;28;20316;-67
2022/04/14 04:51:27;;;;;;;18.43;13.30;;;15.90;99.90;;;;;;5011631;28;20188;-67
2022/04/14 04:53:53;;;;;;;17.13;14.00;;;15.90;99.90;;;;;;5012482;28;20232;-67
2022/04/14 04:56:18;;;;;;;14.47;12.97;;;15.90;99.90;;;;;;5012194;28;20178;-67
2022/04/14 04:58:47;;;;;;;15.10;12.77;;;15.90;99.90;;;;;;5011423;28;20266;-67
2022/04/14 05:01:13;;;;;;;12.93;11.60;;;16.00;99.90;;;;;;5010623;28;20526;-67
2022/04/14 05:03:39;;;;;;;14.73;13.23;;;15.90;99.90;;;;;;5010179;28;20436;-67
2022/04/14 05:06:05;;;;;;;17.63;15.90;;;15.90;99.90;;;;;;5012116;28;20467;-67
2022/04/14 05:08:31;;;;;;;16.40;14.90;;;15.90;99.90;;;;;;5011281;28;20421;-67
2022/04/14 05:10:57;;;;;;;13.60;12.20;;;15.90;99.90;;;;;;5014629;28;20448;-67
2022/04/14 05:13:23;;;;;;;15.40;13.17;;;15.90;99.90;;;;;;5014461;28;20417;-74
2022/04/14 05:15:48;;;;;;;17.10;15.40;;;15.80;99.90;;;;;;5015453;28;20661;-67
2022/04/14 05:18:14;;;;;;;16.50;14.90;;;15.80;99.90;;;;;;5016442;28;20512;-67
2022/04/14 05:20:42;;;;;;;15.93;14.23;;;15.80;99.90;;;;;;5014362;28;20191;-67
2022/04/14 05:23:09;;;;;;;16.97;14.87;;;15.80;99.90;;;;;;5014688;28;20217;-67
2022/04/14 05:25:36;;;;;;;16.23;14.50;;;15.80;99.90;;;;;;5014819;28;20433;-68
2022/04/14 05:28:02;;;;;;;16.97;15.17;;;15.80;99.90;;;;;;5015669;28;20432;-67
2022/04/14 05:30:28;;;;;;;16.87;15.07;;;15.80;99.90;;;;;;5014799;28;20419;-68
2022/04/14 05:32:53;;;;;;;18.37;16.77;;;15.80;99.90;;;;;;5015776;28;20425;-67
2022/04/14 05:35:21;;;;;;;17.10;15.30;;;15.80;99.90;;;;;;5014047;28;20204;-67
2022/04/14 05:37:47;;;;;;;18.60;16.70;;;15.80;99.90;;;;;;5014655;28;20191;-67
2022/04/14 05:40:13;;;;;;;22.00;15.57;;;15.80;99.90;;;;;;5016020;28;20777;-67
2022/04/14 05:42:45;;;;;;;17.13;15.33;;;15.80;99.90;;;;;;5014030;28;20547;-67
2022/04/14 05:45:14;;;;;;;18.23;15.40;;;15.80;99.90;;;;;;5014493;28;20408;-67
2022/04/14 05:47:39;;;;;;;18.20;16.23;;;15.80;99.90;;;;;;5014075;28;20519;-67
2022/04/14 05:50:06;;;;;;;18.90;17.00;;;15.90;99.90;;;;;;5015599;28;20413;-67
2022/04/14 05:52:32;;;;;;;18.37;16.57;;;15.80;99.90;;;;;;5014739;28;20206;-67
2022/04/14 05:55:03;;;;;;;17.90;16.20;;;15.80;99.90;;;;;;5014927;28;20448;-67
2022/04/14 05:57:29;;;;;;;20.37;18.23;;;15.80;99.90;;;;;;5014705;28;20167;-67
2022/04/14 05:59:56;;;;;;;20.27;17.43;;;15.80;99.90;;;;;;5015177;28;20498;-67
2022/04/14 06:02:22;;;;;;;19.60;16.50;;;15.80;99.90;;;;;;5015364;28;20669;-67
2022/04/14 06:04:47;;;;;;;19.97;17.87;;;15.80;99.90;;;;;;5014770;28;20426;-67
2022/04/14 06:07:13;;;;;;;18.63;16.17;;;15.80;99.90;;;;;;5014691;28;20179;-68
2022/04/14 06:09:39;;;;;;;18.93;16.67;;;15.80;99.90;;;;;;5011985;28;20698;-70
2022/04/14 06:12:05;;;;;;;14.33;12.90;;;15.90;99.90;;;;;;5013407;28;20207;-70
2022/04/14 06:14:33;;;;;;;13.23;11.93;;;16.00;99.90;;;;;;5014006;28;20182;-71
2022/04/14 06:16:58;;;;;;;18.00;14.97;;;16.10;99.90;;;;;;5014481;28;20874;-70
2022/04/14 06:19:24;;;;;;;10.93;9.90;;;16.40;99.90;;;;;;5014763;28;20493;-70
2022/04/14 06:21:50;;;;;;;11.23;9.80;;;16.70;99.90;;;;;;5012677;28;20241;-70
2022/04/14 06:24:16;;;;;;;10.47;9.57;;;17.00;99.90;;;;;;5015215;28;20480;-70
2022/04/14 06:26:42;;;;;;;19.37;16.70;;;17.30;99.90;;;;;;5016841;28;20179;-70
2022/04/14 06:29:08;;;;;;;17.90;15.50;;;17.60;99.90;;;;;;5014335;28;20433;-70
2022/04/14 06:31:35;;;;;;;21.57;18.67;;;17.60;99.90;;;;;;5013603;28;20438;-73
2022/04/14 06:34:02;;;;;;;14.17;12.73;;;17.70;99.90;;;;;;5015132;28;20616;-71
2022/04/14 06:36:27;;;;;;;15.70;14.10;;;17.80;99.90;;;;;;5013711;28;20445;-75
2022/04/14 06:38:53;;;;;;;20.23;18.27;;;17.80;99.90;;;;;;5013544;28;20422;-74
2022/04/14 06:41:19;;;;;;;21.00;18.80;;;17.90;99.90;;;;;;5013420;28;20233;-74
2022/04/14 06:43:49;;;;;;;21.53;17.87;;;18.00;99.90;;;;;;5014122;28;20615;-75
2022/04/14 06:46:15;;;;;;;20.67;18.47;;;18.00;99.90;;;;;;5013979;28;20167;-70
2022/04/14 06:48:41;;;;;;;19.97;17.87;;;18.00;99.90;;;;;;5013676;28;20461;-72
2022/04/14 06:51:06;;;;;;;20.60;16.30;;;18.00;99.90;;;;;;5014715;28;20432;-72
2022/04/14 06:53:32;;;;;;;22.20;18.33;;;17.90;99.90;;;;;;5013099;28;20250;-68
2022/04/14 06:55:58;;;;;;;21.40;19.20;;;17.80;99.90;;;;;;5013387;28;20183;-70
2022/04/14 06:58:24;;;;;;;22.97;20.57;;;17.70;99.90;;;;;;5013943;28;20229;-70
2022/04/14 07:00:49;;;;;;;23.30;20.07;;;17.50;99.90;;;;;;5013125;28;20197;-70
2022/04/14 07:03:15;;;;;;;22.13;18.40;;;17.40;99.90;;;;;;5014174;28;20175;-70
2022/04/14 07:05:41;;;;;;;23.60;20.33;;;17.30;99.90;;;;;;4995713;28;20210;-69
2022/04/14 07:08:07;;;;;;;21.00;18.90;;;17.30;99.90;;;;;;4994949;28;20185;-67
2022/04/14 07:10:33;;;;;;;26.17;20.50;;;17.20;99.90;;;;;;5013549;28;20528;-68
2022/04/14 07:12:59;;;;;;;24.43;19.50;;;17.10;99.90;;;;;;5013852;28;20175;-67
2022/04/14 07:15:24;;;;;;;25.87;20.70;;;17.10;99.90;;;;;;5013357;28;20634;-68
2022/04/14 07:17:50;;;;;;;27.23;22.63;;;17.10;99.90;;;;;;5012281;28;20473;-68
2022/04/14 07:20:16;;;;;;;28.40;22.37;;;17.10;99.90;;;;;;5013660;28;20190;-67
2022/04/14 07:22:45;;;;;;;30.57;23.37;;;17.10;99.90;;;;;;5012436;28;20621;-67
2022/04/14 07:25:11;;;;;;;28.57;23.10;;;17.10;99.90;;;;;;5012648;28;20179;-67
2022/04/14 07:27:37;;;;;;;30.20;21.27;;;17.10;99.90;;;;;;5012653;28;20496;-67
2022/04/14 07:30:03;;;;;;;34.90;24.13;;;17.10;99.90;;;;;;5011600;28;20429;-67
2022/04/14 07:32:40;;;;;;;37.60;27.23;;;17.10;99.90;;;;;;4995583;28;20175;-74
2022/04/14 07:35:07;;;;;;;40.43;28.60;;;17.10;99.90;;;;;;5013570;28;20433;-67
2022/04/14 07:37:33;;;;;;;46.20;29.73;;;17.10;99.90;;;;;;5012616;28;20441;-68
2022/04/14 07:39:59;;;;;;;43.90;30.70;;;17.10;99.90;;;;;;5009855;28;20428;-67
2022/04/14 07:42:36;;;;;;;44.27;31.00;;;17.20;99.90;;;;;;5013217;28;21017;-67
2022/04/14 07:45:03;;;;;;;47.10;31.37;;;17.20;99.90;;;;;;5013279;28;20484;-67
2022/04/14 07:47:29;;;;;;;47.13;31.50;;;17.20;99.90;;;;;;5013308;28;20417;-67
2022/04/14 07:49:55;;;;;;;46.37;31.67;;;17.30;99.90;;;;;;5012616;28;20909;-67
2022/04/14 07:52:20;;;;;;;45.57;31.77;;;17.30;99.90;;;;;;5013321;28;20183;-68
2022/04/14 07:54:46;;;;;;;44.40;31.77;;;17.30;99.90;;;;;;5011085;28;20187;-67
2022/04/14 07:57:12;;;;;;;45.83;31.07;;;17.40;99.90;;;;;;5013109;28;20185;-67
2022/04/14 07:59:38;;;;;;;41.20;30.27;;;17.40;99.90;;;;;;5011770;28;20233;-68
2022/04/14 08:02:04;;;;;;;47.90;31.80;;;17.50;99.90;;;;;;5026821;28;20211;-68
2022/04/14 08:04:31;;;;;;;45.37;29.53;;;17.50;99.90;;;;;;5012780;28;20270;-67
2022/04/14 08:06:56;;;;;;;41.60;30.90;;;17.60;99.90;;;;;;5000761;28;20481;-68
2022/04/14 08:09:22;;;;;;;39.17;30.07;;;17.60;99.90;;;;;;5011887;28;20433;-68
2022/04/14 08:11:48;;;;;;;39.03;28.80;;;17.60;99.90;;;;;;5012731;28;20540;-67
2022/04/14 08:14:14;;;;;;;47.40;31.60;;;17.70;99.90;;;;;;5012861;28;20457;-68
2022/04/14 08:16:39;;;;;;;46.93;30.10;;;17.70;99.90;;;;;;5010933;28;20186;-67
2022/04/14 08:19:05;;;;;;;42.20;32.00;;;17.70;99.90;;;;;;5014734;28;20178;-68
2022/04/14 08:21:31;;;;;;;44.90;29.20;;;17.60;99.90;;;;;;5011931;28;20581;-68
2022/04/14 08:23:58;;;;;;;47.27;33.60;;;17.60;99.90;;;;;;5012661;28;20219;-67
2022/04/14 08:26:26;;;;;;;43.70;31.13;;;17.60;99.90;;;;;;5012477;28;20544;-67
2022/04/14 08:28:53;;;;;;;46.73;30.20;;;17.60;99.90;;;;;;5003076;28;20418;-67
2022/04/14 08:31:21;;;;;;;43.30;33.30;;;17.50;99.90;;;;;;5012572;28;20433;-67
2022/04/14 08:33:48;;;;;;;42.60;30.53;;;17.50;99.90;;;;;;5011689;28;20917;-68
2022/04/14 08:36:15;;;;;;;44.40;31.63;;;17.50;99.90;;;;;;5012300;28;20434;-68
2022/04/14 08:38:44;;;;;;;41.60;29.77;;;17.60;99.90;;;;;;5011769;28;20449;-67
2022/04/14 08:41:14;;;;;;;45.00;33.93;;;17.60;99.90;;;;;;5012559;28;20936;-67
2022/04/14 08:43:51;;;;;;;44.23;32.97;;;17.60;99.90;;;;;;5012275;28;20450;-67
2022/04/14 08:46:19;;;;;;;43.70;29.80;;;17.60;99.90;;;;;;5012309;28;20800;-68
2022/04/14 08:48:50;;;;;;;50.80;32.90;;;17.70;99.90;;;;;;5011976;28;20880;-67
2022/04/14 08:51:17;;;;;;;43.23;29.90;;;17.70;99.90;;;;;;5011301;28;20437;-67
2022/04/14 08:53:44;;;;;;;42.83;30.83;;;17.70;99.90;;;;;;5011928;28;20421;-67
2022/04/14 08:56:10;;;;;;;43.10;31.00;;;17.80;99.90;;;;;;5012894;28;20414;-67
2022/04/14 08:58:37;;;;;;;41.50;32.63;;;17.90;99.90;;;;;;5012111;28;20419;-67
2022/04/14 09:01:03;;;;;;;43.33;29.20;;;17.90;99.90;;;;;;5012772;28;20834;-67
2022/04/14 09:03:31;;;;;;;41.03;29.27;;;18.00;99.90;;;;;;5012538;28;20927;-68
2022/04/14 09:05:57;;;;;;;45.63;29.60;;;18.10;99.90;;;;;;5012020;28;20418;-67
2022/04/14 09:08:23;;;;;;;39.03;30.27;;;18.20;99.90;;;;;;5012933;28;20414;-67
2022/04/14 09:10:49;;;;;;;44.47;30.80;;;18.40;99.90;;;;;;5010693;28;20183;-67
2022/04/14 09:13:15;;;;;;;38.30;28.27;;;18.50;99.90;;;;;;5012770;28;20171;-67
2022/04/14 09:15:41;;;;;;;33.87;27.43;;;18.60;99.90;;;;;;5011953;28;20509;-67
2022/04/14 09:18:08;;;;;;;34.97;26.37;;;18.70;99.90;;;;;;5011342;28;20513;-67
2022/04/14 09:20:36;;;;;;;34.03;27.87;;;18.80;99.90;;;;;;5012663;28;20175;-67
2022/04/14 09:23:26;;;;;;;36.80;27.73;;;18.90;99.90;;;;;;5012469;28;20506;-67
2022/04/14 09:26:03;;;;;;;33.33;24.77;;;19.10;99.80;;;;;;5010496;28;20410;-67
2022/04/14 09:28:30;;;;;;;31.10;23.73;;;19.30;99.90;;;;;;5012664;28;20816;-67
2022/04/14 09:31:10;;;;;;;33.47;26.60;;;19.40;99.90;;;;;;5011745;28;20451;-67
2022/04/14 09:33:46;;;;;;;31.20;25.00;;;19.60;98.40;;;;;;5012833;28;20799;-67
2022/04/14 09:36:15;;;;;;;25.90;20.57;;;19.80;98.10;;;;;;5011302;28;20401;-67
2022/04/14 09:39:01;;;;;;;29.93;21.67;;;20.10;97.10;;;;;;5011933;28;20414;-67
2022/04/14 09:41:29;;;;;;;23.67;19.20;;;20.40;96.60;;;;;;5012309;28;20465;-67
2022/04/14 09:43:56;;;;;;;22.63;18.07;;;20.60;95.80;;;;;;5010348;28;20541;-67
2022/04/14 09:46:21;;;;;;;23.60;18.40;;;20.80;93.60;;;;;;5012285;28;20464;-67
2022/04/14 09:49:10;;;;;;;19.63;17.50;;;21.00;93.90;;;;;;5011304;28;20453;-67
2022/04/14 09:51:44;;;;;;;20.50;18.30;;;21.20;92.80;;;;;;5012372;28;20530;-67
2022/04/14 09:54:16;;;;;;;21.30;19.07;;;21.40;93.00;;;;;;5012505;28;20739;-67
2022/04/14 09:56:43;;;;;;;22.03;19.73;;;21.60;93.80;;;;;;5011338;28;20464;-68
2022/04/14 09:59:10;;;;;;;19.77;17.67;;;21.90;91.50;;;;;;5015713;28;20816;-67
2022/04/14 10:01:36;;;;;;;21.20;18.00;;;22.10;91.70;;;;;;5015760;28;20515;-67
2022/04/14 10:04:04;;;;;;;21.07;18.87;;;22.30;91.40;;;;;;5015368;28;20425;-67
2022/04/14 10:06:30;;;;;;;22.33;20.00;;;22.60;90.80;;;;;;5015083;28;20406;-67
2022/04/14 10:08:57;;;;;;;20.63;18.43;;;22.70;89.90;;;;;;5014837;28;20421;-67
2022/04/14 10:11:32;;;;;;;19.17;17.00;;;22.80;90.70;;;;;;5015285;28;20940;-67
2022/04/14 10:14:12;;;;;;;20.63;17.83;;;23.00;88.30;;;;;;5014864;28;20468;-67
2022/04/14 10:16:40;;;;;;;20.73;18.47;;;23.10;85.50;;;;;;5014154;28;20482;-67
2022/04/14 10:19:08;;;;;;;21.90;19.80;;;23.10;85.90;;;;;;5015428;28;20890;-67
2022/04/14 10:21:35;;;;;;;18.30;16.50;;;23.10;85.00;;;;;;5015225;28;20457;-67
2022/04/14 10:24:01;;;;;;;13.23;11.80;;;23.10;82.90;;;;;;5014970;28;20419;-69
2022/04/14 10:26:28;;;;;;;13.17;12.07;;;23.20;81.00;;;;;;5014986;28;20410;-67
2022/04/14 10:28:55;;;;;;;18.33;16.63;;;23.30;81.00;;;;;;5013464;28;20189;-67
2022/04/14 10:31:21;;;;;;;18.30;16.40;;;23.30;77.70;;;;;;5015092;28;20431;-67
2022/04/14 10:33:48;;;;;;;11.37;10.27;;;23.20;77.90;;;;;;5014261;28;20509;-68
2022/04/14 10:36:14;;;;;;;14.20;13.10;;;23.20;78.60;;;;;;5015184;28;20417;-67
2022/04/14 10:38:43;;;;;;;10.70;9.70;;;23.20;77.60;;;;;;5015018;28;20414;-67
2022/04/14 10:41:19;;;;;;;9.47;8.67;;;23.10;75.80;;;;;;5014562;28;20179;-67
2022/04/14 10:43:47;;;;;;;12.90;11.70;;;22.90;73.60;;;;;;5014471;28;20752;-67
2022/04/14 10:46:15;;;;;;;9.20;8.30;;;22.90;79.20;;;;;;5014586;28;20424;-67
2022/04/14 10:48:42;;;;;;;9.60;8.90;;;22.90;75.60;;;;;;5014306;28;20458;-73
2022/04/14 10:51:23;;;;;;;9.43;8.80;;;22.80;73.00;;;;;;5013849;28;20484;-67
2022/04/14 10:53:49;;;;;;;11.20;10.40;;;22.90;78.50;;;;;;5012974;28;20483;-68
2022/04/14 10:56:33;;;;;;;9.93;9.13;;;23.00;77.00;;;;;;5014629;28;20437;-68
2022/04/14 10:59:03;;;;;;;11.10;10.23;;;23.20;75.20;;;;;;5014003;28;20398;-67
2022/04/14 11:01:47;;;;;;;13.30;12.23;;;23.40;74.80;;;;;;5013298;28;20929;-67
2022/04/14 11:04:40;;;;;;;12.23;11.30;;;23.50;76.10;;;;;;5014511;28;20418;-67
2022/04/14 11:07:16;;;;;;;13.10;12.00;;;23.70;74.60;;;;;;5013229;28;20779;-67
2022/04/14 11:09:48;;;;;;;13.50;12.50;;;23.70;73.60;;;;;;5014422;28;20410;-67
2022/04/14 11:12:32;;;;;;;15.40;14.20;;;23.90;73.00;;;;;;5014095;28;20563;-68
2022/04/14 11:15:06;;;;;;;15.23;13.97;;;23.90;72.00;;;;;;5013483;28;20889;-68
2022/04/14 11:17:37;;;;;;;16.07;14.60;;;24.00;71.10;;;;;;5013726;28;20422;-68
2022/04/14 11:20:18;;;;;;;15.13;13.93;;;24.10;70.40;;;;;;5013676;28;20417;-67
2022/04/14 11:23:08;;;;;;;16.13;14.73;;;24.00;69.80;;;;;;5013621;28;20489;-68
2022/04/14 11:25:42;;;;;;;16.37;15.00;;;23.90;72.00;;;;;;5014301;28;20430;-68
2022/04/14 11:28:30;;;;;;;15.63;14.33;;;24.00;73.40;;;;;;5013662;28;20418;-68
2022/04/14 11:31:17;;;;;;;15.63;14.43;;;24.10;74.10;;;;;;5012525;28;20406;-67
2022/04/14 11:33:47;;;;;;;15.20;14.10;;;24.10;67.80;;;;;;5012460;28;20795;-68
2022/04/14 11:36:17;;;;;;;16.40;15.10;;;23.90;67.90;;;;;;4996583;28;20410;-67
2022/04/14 11:39:04;;;;;;;16.33;15.13;;;23.80;69.20;;;;;;4996357;28;20773;-67
2022/04/14 11:41:37;;;;;;;19.13;17.33;;;23.90;70.00;;;;;;4996036;28;20464;-68
2022/04/14 11:44:14;;;;;;;19.97;18.27;;;24.00;69.20;;;;;;5011694;28;20431;-67
2022/04/14 11:46:48;;;;;;;20.83;19.20;;;24.00;69.20;;;;;;5013778;28;20758;-68
2022/04/14 11:49:19;;;;;;;19.40;17.90;;;24.00;70.70;;;;;;5013191;28;20465;-67
2022/04/14 11:51:55;;;;;;;20.13;18.43;;;23.90;70.60;;;;;;5013477;28;20490;-74
2022/04/14 11:54:30;;;;;;;19.37;17.57;;;23.80;70.30;;;;;;5013845;28;20430;-67
2022/04/14 11:57:01;;;;;;;24.37;22.47;;;23.60;70.50;;;;;;5012989;28;20409;-67
2022/04/14 11:59:33;;;;;;;22.17;20.10;;;23.30;71.20;;;;;;5012251;28;20406;-67
2022/04/14 12:02:04;;;;;;;22.30;20.40;;;23.10;71.80;;;;;;5012547;28;20450;-67
2022/04/14 12:04:43;;;;;;;24.10;21.57;;;22.90;72.30;;;;;;5013603;28;20440;-68
2022/04/14 12:07:09;;;;;;;22.37;20.43;;;22.70;73.00;;;;;;5012499;28;20805;-67
2022/04/14 12:09:37;;;;;;;22.50;20.27;;;22.50;74.90;;;;;;5013630;28;20409;-68
2022/04/14 12:12:17;;;;;;;22.33;20.33;;;22.50;74.00;;;;;;5012823;28;20426;-67
2022/04/14 12:14:47;;;;;;;21.47;19.67;;;22.50;75.40;;;;;;5013310;28;20418;-67
2022/04/14 12:17:22;;;;;;;23.57;21.57;;;22.30;72.50;;;;;;5011833;28;20422;-67
2022/04/14 12:19:52;;;;;;;21.50;19.60;;;22.30;74.60;;;;;;5011862;28;20402;-68
2022/04/14 12:22:18;;;;;;;21.17;19.27;;;22.10;75.30;;;;;;5013371;28;20446;-67
2022/04/14 12:25:01;;;;;;;13.80;12.80;;;22.00;76.00;;;;;;5013250;28;20446;-67
2022/04/14 12:27:34;;;;;;;11.37;10.37;;;21.80;73.60;;;;;;5013100;28;20414;-67
2022/04/14 12:30:08;;;;;;;12.57;11.47;;;21.70;71.60;;;;;;5012538;28;20482;-67
2022/04/14 12:32:34;;;;;;;12.33;11.33;;;21.60;73.60;;;;;;5013044;28;20936;-67
2022/04/14 12:35:00;;;;;;;16.17;14.70;;;21.70;73.70;;;;;;4994807;28;20422;-67
2022/04/14 12:37:37;;;;;;;11.90;11.10;;;21.80;73.60;;;;;;5013242;28;20183;-67
2022/04/14 12:40:15;;;;;;;13.40;12.50;;;21.90;72.90;;;;;;5012295;28;20459;-67
2022/04/14 12:42:44;;;;;;;12.07;11.10;;;22.10;72.80;;;;;;5012869;28;20453;-67